sensor_id;sensor_type;location;lat;lon;timestamp;P1;durP1;ratioP1;P2;durP2;ratioP2
67130;SDS011;54051;53.464;49.532;2023-04-06T00:02:20;46.15;;;8.18;;
67130;SDS011;54051;53.464;49.532;2023-04-06T00:04:46;41.10;;;9.43;;
67130;SDS011;54051;53.464;49.532;2023-04-06T00:07:12;42.70;;;9.02;;
67130;SDS011;54051;53.464;49.532;2023-04-06T00:09:38;49.33;;;8.32;;
67130;SDS011;54051;53.464;49.532;2023-04-06T00:12:05;57.92;;;9.57;;
67130;SDS011;54051;53.464;49.532;2023-04-06T00:14:32;39.17;;;6.88;;
67130;SDS011;54051;53.464;49.532;2023-04-06T00:16:58;42.90;;;7.60;;
67130;SDS011;54051;53.464;49.532;2023-04-06T00:19:24;46.40;;;7.70;;
67130;SDS011;54051;53.464;49.532;2023-04-06T00:21:50;42.35;;;7.80;;
67130;SDS011;54051;53.464;49.532;2023-04-06T00:24:16;47.40;;;8.20;;
67130;SDS011;54051;53.464;49.532;2023-04-06T00:26:43;42.67;;;8.35;;
67130;SDS011;54051;53.464;49.532;2023-04-06T00:29:09;48.38;;;8.75;;
67130;SDS011;54051;53.464;49.532;2023-04-06T00:31:36;35.67;;;7.28;;
67130;SDS011;54051;53.464;49.532;2023-04-06T00:34:02;35.95;;;7.60;;
67130;SDS011;54051;53.464;49.532;2023-04-06T00:36:28;43.47;;;7.87;;
67130;SDS011;54051;53.464;49.532;2023-04-06T00:38:55;36.22;;;7.75;;
67130;SDS011;54051;53.464;49.532;2023-04-06T00:41:21;40.28;;;7.93;;
67130;SDS011;54051;53.464;49.532;2023-04-06T00:43:48;37.45;;;7.40;;
67130;SDS011;54051;53.464;49.532;2023-04-06T00:46:14;53.30;;;9.23;;
67130;SDS011;54051;53.464;49.532;2023-04-06T00:48:40;45.03;;;7.68;;
67130;SDS011;54051;53.464;49.532;2023-04-06T00:51:07;48.70;;;7.88;;
67130;SDS011;54051;53.464;49.532;2023-04-06T00:53:33;47.47;;;8.25;;
67130;SDS011;54051;53.464;49.532;2023-04-06T00:55:59;39.70;;;7.65;;
67130;SDS011;54051;53.464;49.532;2023-04-06T00:58:25;44.83;;;8.50;;
67130;SDS011;54051;53.464;49.532;2023-04-06T01:00:52;52.17;;;8.93;;
67130;SDS011;54051;53.464;49.532;2023-04-06T01:03:18;43.08;;;8.20;;
67130;SDS011;54051;53.464;49.532;2023-04-06T01:05:44;43.63;;;8.73;;
67130;SDS011;54051;53.464;49.532;2023-04-06T01:08:10;47.42;;;8.48;;
67130;SDS011;54051;53.464;49.532;2023-04-06T01:10:37;47.45;;;8.63;;
67130;SDS011;54051;53.464;49.532;2023-04-06T01:13:03;44.80;;;8.95;;
67130;SDS011;54051;53.464;49.532;2023-04-06T01:15:29;46.05;;;9.68;;
67130;SDS011;54051;53.464;49.532;2023-04-06T01:17:55;47.75;;;9.55;;
67130;SDS011;54051;53.464;49.532;2023-04-06T01:20:22;53.47;;;10.52;;
67130;SDS011;54051;53.464;49.532;2023-04-06T01:22:48;49.90;;;9.30;;
67130;SDS011;54051;53.464;49.532;2023-04-06T01:25:14;47.95;;;8.93;;
67130;SDS011;54051;53.464;49.532;2023-04-06T01:27:40;47.38;;;9.07;;
67130;SDS011;54051;53.464;49.532;2023-04-06T01:30:07;49.30;;;8.65;;
67130;SDS011;54051;53.464;49.532;2023-04-06T01:32:33;48.33;;;8.73;;
67130;SDS011;54051;53.464;49.532;2023-04-06T01:37:28;44.15;;;8.38;;
67130;SDS011;54051;53.464;49.532;2023-04-06T01:39:57;48.75;;;8.73;;
67130;SDS011;54051;53.464;49.532;2023-04-06T01:42:24;52.97;;;8.43;;
67130;SDS011;54051;53.464;49.532;2023-04-06T01:47:17;42.53;;;7.32;;
67130;SDS011;54051;53.464;49.532;2023-04-06T01:49:43;43.30;;;8.57;;
67130;SDS011;54051;53.464;49.532;2023-04-06T01:52:10;44.03;;;7.72;;
67130;SDS011;54051;53.464;49.532;2023-04-06T01:54:36;49.03;;;9.38;;
67130;SDS011;54051;53.464;49.532;2023-04-06T01:57:02;55.00;;;9.73;;
67130;SDS011;54051;53.464;49.532;2023-04-06T01:59:29;44.45;;;9.50;;
67130;SDS011;54051;53.464;49.532;2023-04-06T02:01:55;51.03;;;8.98;;
67130;SDS011;54051;53.464;49.532;2023-04-06T02:04:21;51.67;;;9.63;;
67130;SDS011;54051;53.464;49.532;2023-04-06T02:06:47;51.42;;;9.13;;
67130;SDS011;54051;53.464;49.532;2023-04-06T02:09:14;60.03;;;8.93;;
67130;SDS011;54051;53.464;49.532;2023-04-06T02:11:40;61.38;;;9.50;;
67130;SDS011;54051;53.464;49.532;2023-04-06T02:14:06;46.08;;;8.85;;
67130;SDS011;54051;53.464;49.532;2023-04-06T02:16:33;54.22;;;9.55;;
67130;SDS011;54051;53.464;49.532;2023-04-06T02:18:59;48.70;;;10.10;;
67130;SDS011;54051;53.464;49.532;2023-04-06T02:21:25;59.37;;;10.10;;
67130;SDS011;54051;53.464;49.532;2023-04-06T02:23:52;49.20;;;9.48;;
67130;SDS011;54051;53.464;49.532;2023-04-06T02:26:18;52.88;;;10.50;;
67130;SDS011;54051;53.464;49.532;2023-04-06T02:28:45;48.15;;;10.25;;
67130;SDS011;54051;53.464;49.532;2023-04-06T02:31:12;53.40;;;10.23;;
67130;SDS011;54051;53.464;49.532;2023-04-06T02:33:40;49.90;;;10.05;;
67130;SDS011;54051;53.464;49.532;2023-04-06T02:36:07;57.60;;;10.25;;
67130;SDS011;54051;53.464;49.532;2023-04-06T02:38:33;47.15;;;8.82;;
67130;SDS011;54051;53.464;49.532;2023-04-06T02:41:00;36.90;;;8.70;;
67130;SDS011;54051;53.464;49.532;2023-04-06T02:43:26;48.58;;;7.93;;
67130;SDS011;54051;53.464;49.532;2023-04-06T02:45:52;49.45;;;8.75;;
67130;SDS011;54051;53.464;49.532;2023-04-06T02:48:18;47.08;;;8.73;;
67130;SDS011;54051;53.464;49.532;2023-04-06T02:50:44;46.92;;;8.10;;
67130;SDS011;54051;53.464;49.532;2023-04-06T02:53:11;48.90;;;9.10;;
67130;SDS011;54051;53.464;49.532;2023-04-06T02:55:37;44.30;;;8.90;;
67130;SDS011;54051;53.464;49.532;2023-04-06T02:58:03;51.15;;;8.20;;
67130;SDS011;54051;53.464;49.532;2023-04-06T03:00:30;48.53;;;8.70;;
67130;SDS011;54051;53.464;49.532;2023-04-06T03:02:56;52.15;;;9.02;;
67130;SDS011;54051;53.464;49.532;2023-04-06T03:05:22;46.75;;;9.05;;
67130;SDS011;54051;53.464;49.532;2023-04-06T03:07:49;53.67;;;10.43;;
67130;SDS011;54051;53.464;49.532;2023-04-06T03:10:15;55.45;;;11.95;;
67130;SDS011;54051;53.464;49.532;2023-04-06T03:12:41;61.42;;;11.43;;
67130;SDS011;54051;53.464;49.532;2023-04-06T03:15:08;49.28;;;11.55;;
67130;SDS011;54051;53.464;49.532;2023-04-06T03:17:34;54.83;;;13.43;;
67130;SDS011;54051;53.464;49.532;2023-04-06T03:20:01;49.95;;;12.10;;
67130;SDS011;54051;53.464;49.532;2023-04-06T03:22:28;43.95;;;11.10;;
67130;SDS011;54051;53.464;49.532;2023-04-06T03:24:54;45.25;;;9.25;;
67130;SDS011;54051;53.464;49.532;2023-04-06T03:27:20;43.92;;;8.60;;
67130;SDS011;54051;53.464;49.532;2023-04-06T03:29:47;42.95;;;9.15;;
67130;SDS011;54051;53.464;49.532;2023-04-06T03:32:13;42.28;;;9.77;;
67130;SDS011;54051;53.464;49.532;2023-04-06T03:34:39;51.10;;;11.98;;
67130;SDS011;54051;53.464;49.532;2023-04-06T03:37:05;51.75;;;12.23;;
67130;SDS011;54051;53.464;49.532;2023-04-06T03:39:32;60.38;;;15.20;;
67130;SDS011;54051;53.464;49.532;2023-04-06T03:41:58;57.50;;;14.65;;
67130;SDS011;54051;53.464;49.532;2023-04-06T03:44:24;59.33;;;14.70;;
67130;SDS011;54051;53.464;49.532;2023-04-06T03:46:50;42.80;;;10.90;;
67130;SDS011;54051;53.464;49.532;2023-04-06T03:49:16;48.80;;;10.18;;
67130;SDS011;54051;53.464;49.532;2023-04-06T03:51:43;48.35;;;9.63;;
67130;SDS011;54051;53.464;49.532;2023-04-06T03:54:09;47.72;;;9.25;;
67130;SDS011;54051;53.464;49.532;2023-04-06T03:56:35;51.20;;;8.57;;
67130;SDS011;54051;53.464;49.532;2023-04-06T03:59:02;52.17;;;8.83;;
67130;SDS011;54051;53.464;49.532;2023-04-06T04:01:28;44.30;;;9.03;;
67130;SDS011;54051;53.464;49.532;2023-04-06T04:03:54;41.43;;;8.43;;
67130;SDS011;54051;53.464;49.532;2023-04-06T04:06:20;42.38;;;9.15;;
67130;SDS011;54051;53.464;49.532;2023-04-06T04:08:47;42.75;;;8.70;;
67130;SDS011;54051;53.464;49.532;2023-04-06T04:11:13;44.60;;;9.40;;
67130;SDS011;54051;53.464;49.532;2023-04-06T04:13:41;44.45;;;8.65;;
67130;SDS011;54051;53.464;49.532;2023-04-06T04:16:07;41.47;;;8.63;;
67130;SDS011;54051;53.464;49.532;2023-04-06T04:18:34;39.20;;;8.50;;
67130;SDS011;54051;53.464;49.532;2023-04-06T04:21:00;41.72;;;8.95;;
67130;SDS011;54051;53.464;49.532;2023-04-06T04:23:26;52.58;;;9.20;;
67130;SDS011;54051;53.464;49.532;2023-04-06T04:25:52;50.30;;;8.98;;
67130;SDS011;54051;53.464;49.532;2023-04-06T04:28:19;48.42;;;8.68;;
67130;SDS011;54051;53.464;49.532;2023-04-06T04:30:45;47.60;;;9.43;;
67130;SDS011;54051;53.464;49.532;2023-04-06T04:35:38;48.42;;;9.13;;
67130;SDS011;54051;53.464;49.532;2023-04-06T04:38:04;46.15;;;9.13;;
67130;SDS011;54051;53.464;49.532;2023-04-06T04:40:30;48.47;;;9.10;;
67130;SDS011;54051;53.464;49.532;2023-04-06T04:42:56;53.33;;;9.93;;
67130;SDS011;54051;53.464;49.532;2023-04-06T04:45:23;36.80;;;8.38;;
67130;SDS011;54051;53.464;49.532;2023-04-06T04:47:49;40.13;;;8.60;;
67130;SDS011;54051;53.464;49.532;2023-04-06T04:50:15;38.75;;;9.15;;
67130;SDS011;54051;53.464;49.532;2023-04-06T04:52:41;44.70;;;9.25;;
67130;SDS011;54051;53.464;49.532;2023-04-06T04:55:08;41.80;;;9.05;;
67130;SDS011;54051;53.464;49.532;2023-04-06T05:00:00;45.22;;;8.50;;
67130;SDS011;54051;53.464;49.532;2023-04-06T05:02:27;37.80;;;8.85;;
67130;SDS011;54051;53.464;49.532;2023-04-06T05:04:53;43.70;;;9.27;;
67130;SDS011;54051;53.464;49.532;2023-04-06T05:07:20;45.22;;;9.35;;
67130;SDS011;54051;53.464;49.532;2023-04-06T05:09:46;41.25;;;8.50;;
67130;SDS011;54051;53.464;49.532;2023-04-06T05:12:13;38.00;;;9.23;;
67130;SDS011;54051;53.464;49.532;2023-04-06T05:17:06;40.10;;;8.70;;
67130;SDS011;54051;53.464;49.532;2023-04-06T05:19:32;37.60;;;8.40;;
67130;SDS011;54051;53.464;49.532;2023-04-06T05:21:59;38.70;;;8.27;;
67130;SDS011;54051;53.464;49.532;2023-04-06T05:24:25;39.40;;;8.30;;
67130;SDS011;54051;53.464;49.532;2023-04-06T05:26:51;40.35;;;7.97;;
67130;SDS011;54051;53.464;49.532;2023-04-06T05:31:44;33.13;;;7.07;;
67130;SDS011;54051;53.464;49.532;2023-04-06T05:36:38;37.80;;;7.57;;
67130;SDS011;54051;53.464;49.532;2023-04-06T05:39:05;42.47;;;7.45;;
67130;SDS011;54051;53.464;49.532;2023-04-06T05:41:33;36.03;;;8.20;;
67130;SDS011;54051;53.464;49.532;2023-04-06T05:43:59;40.13;;;7.95;;
67130;SDS011;54051;53.464;49.532;2023-04-06T05:46:25;41.13;;;8.35;;
67130;SDS011;54051;53.464;49.532;2023-04-06T05:51:18;37.65;;;7.70;;
67130;SDS011;54051;53.464;49.532;2023-04-06T05:56:11;37.85;;;7.72;;
67130;SDS011;54051;53.464;49.532;2023-04-06T05:58:38;40.13;;;7.70;;
67130;SDS011;54051;53.464;49.532;2023-04-06T06:03:30;29.67;;;6.93;;
67130;SDS011;54051;53.464;49.532;2023-04-06T06:08:27;37.10;;;7.50;;
67130;SDS011;54051;53.464;49.532;2023-04-06T06:10:54;38.80;;;8.27;;
67130;SDS011;54051;53.464;49.532;2023-04-06T06:13:20;36.08;;;8.18;;
67130;SDS011;54051;53.464;49.532;2023-04-06T06:15:48;37.13;;;7.90;;
67130;SDS011;54051;53.464;49.532;2023-04-06T06:18:14;41.20;;;8.40;;
67130;SDS011;54051;53.464;49.532;2023-04-06T06:23:06;36.70;;;7.90;;
67130;SDS011;54051;53.464;49.532;2023-04-06T06:25:33;35.13;;;7.75;;
67130;SDS011;54051;53.464;49.532;2023-04-06T06:27:59;56.15;;;9.50;;
67130;SDS011;54051;53.464;49.532;2023-04-06T06:30:25;31.48;;;7.50;;
67130;SDS011;54051;53.464;49.532;2023-04-06T06:32:51;31.80;;;8.18;;
67130;SDS011;54051;53.464;49.532;2023-04-06T06:37:44;35.13;;;7.88;;
67130;SDS011;54051;53.464;49.532;2023-04-06T06:42:38;29.38;;;7.25;;
67130;SDS011;54051;53.464;49.532;2023-04-06T06:45:06;32.78;;;7.47;;
67130;SDS011;54051;53.464;49.532;2023-04-06T06:47:33;32.33;;;7.50;;
67130;SDS011;54051;53.464;49.532;2023-04-06T06:52:25;26.13;;;6.75;;
67130;SDS011;54051;53.464;49.532;2023-04-06T06:57:18;30.10;;;6.68;;
67130;SDS011;54051;53.464;49.532;2023-04-06T06:59:44;27.58;;;6.47;;
67130;SDS011;54051;53.464;49.532;2023-04-06T07:04:37;28.10;;;6.80;;
67130;SDS011;54051;53.464;49.532;2023-04-06T07:09:29;25.48;;;6.38;;
67130;SDS011;54051;53.464;49.532;2023-04-06T07:11:56;28.45;;;6.47;;
67130;SDS011;54051;53.464;49.532;2023-04-06T07:16:48;29.85;;;6.30;;
67130;SDS011;54051;53.464;49.532;2023-04-06T07:19:15;30.05;;;7.18;;
67130;SDS011;54051;53.464;49.532;2023-04-06T07:24:08;29.73;;;7.88;;
67130;SDS011;54051;53.464;49.532;2023-04-06T07:29:00;27.75;;;7.72;;
67130;SDS011;54051;53.464;49.532;2023-04-06T07:33:52;36.60;;;5.00;;
67130;SDS011;54051;53.464;49.532;2023-04-06T07:38:45;15.13;;;3.53;;
67130;SDS011;54051;53.464;49.532;2023-04-06T07:43:38;20.77;;;4.28;;
67130;SDS011;54051;53.464;49.532;2023-04-06T07:46:04;21.38;;;3.95;;
67130;SDS011;54051;53.464;49.532;2023-04-06T07:48:30;19.30;;;4.13;;
67130;SDS011;54051;53.464;49.532;2023-04-06T07:51:00;31.02;;;4.88;;
67130;SDS011;54051;53.464;49.532;2023-04-06T07:53:30;25.50;;;4.53;;
67130;SDS011;54051;53.464;49.532;2023-04-06T07:55:58;47.85;;;5.43;;
67130;SDS011;54051;53.464;49.532;2023-04-06T07:58:24;19.23;;;3.85;;
67130;SDS011;54051;53.464;49.532;2023-04-06T08:00:51;18.65;;;3.47;;
67130;SDS011;54051;53.464;49.532;2023-04-06T08:03:17;18.27;;;3.83;;
67130;SDS011;54051;53.464;49.532;2023-04-06T08:05:46;22.52;;;4.20;;
67130;SDS011;54051;53.464;49.532;2023-04-06T08:08:12;23.77;;;3.85;;
67130;SDS011;54051;53.464;49.532;2023-04-06T08:10:38;13.40;;;3.40;;
67130;SDS011;54051;53.464;49.532;2023-04-06T08:13:05;18.77;;;3.35;;
67130;SDS011;54051;53.464;49.532;2023-04-06T08:15:31;19.05;;;3.60;;
67130;SDS011;54051;53.464;49.532;2023-04-06T08:17:57;23.27;;;3.85;;
67130;SDS011;54051;53.464;49.532;2023-04-06T08:20:23;23.90;;;4.10;;
67130;SDS011;54051;53.464;49.532;2023-04-06T08:22:50;25.95;;;4.18;;
67130;SDS011;54051;53.464;49.532;2023-04-06T08:25:16;22.77;;;3.85;;
67130;SDS011;54051;53.464;49.532;2023-04-06T08:27:42;17.48;;;3.42;;
67130;SDS011;54051;53.464;49.532;2023-04-06T08:30:09;21.23;;;3.55;;
67130;SDS011;54051;53.464;49.532;2023-04-06T08:32:35;45.95;;;4.80;;
67130;SDS011;54051;53.464;49.532;2023-04-06T08:35:01;17.75;;;3.58;;
67130;SDS011;54051;53.464;49.532;2023-04-06T08:37:28;20.67;;;3.50;;
67130;SDS011;54051;53.464;49.532;2023-04-06T08:39:54;20.33;;;3.60;;
67130;SDS011;54051;53.464;49.532;2023-04-06T08:42:21;19.40;;;3.53;;
67130;SDS011;54051;53.464;49.532;2023-04-06T08:44:50;15.20;;;3.45;;
67130;SDS011;54051;53.464;49.532;2023-04-06T08:47:18;24.77;;;4.00;;
67130;SDS011;54051;53.464;49.532;2023-04-06T08:49:44;19.08;;;3.47;;
67130;SDS011;54051;53.464;49.532;2023-04-06T08:52:12;19.80;;;3.45;;
67130;SDS011;54051;53.464;49.532;2023-04-06T08:54:38;14.98;;;3.47;;
67130;SDS011;54051;53.464;49.532;2023-04-06T08:57:05;25.50;;;3.88;;
67130;SDS011;54051;53.464;49.532;2023-04-06T08:59:31;22.65;;;3.30;;
67130;SDS011;54051;53.464;49.532;2023-04-06T09:02:00;18.42;;;3.58;;
67130;SDS011;54051;53.464;49.532;2023-04-06T09:04:29;12.98;;;3.90;;
67130;SDS011;54051;53.464;49.532;2023-04-06T09:06:56;15.23;;;3.67;;
67130;SDS011;54051;53.464;49.532;2023-04-06T09:09:22;14.15;;;3.58;;
67130;SDS011;54051;53.464;49.532;2023-04-06T09:11:50;15.80;;;3.10;;
67130;SDS011;54051;53.464;49.532;2023-04-06T09:14:32;11.10;;;2.95;;
67130;SDS011;54051;53.464;49.532;2023-04-06T09:17:03;13.15;;;3.50;;
67130;SDS011;54051;53.464;49.532;2023-04-06T09:19:29;8.95;;;3.03;;
67130;SDS011;54051;53.464;49.532;2023-04-06T09:22:05;15.90;;;3.08;;
67130;SDS011;54051;53.464;49.532;2023-04-06T09:24:45;16.92;;;3.20;;
67130;SDS011;54051;53.464;49.532;2023-04-06T09:27:13;15.40;;;2.85;;
67130;SDS011;54051;53.464;49.532;2023-04-06T09:29:40;14.32;;;3.20;;
67130;SDS011;54051;53.464;49.532;2023-04-06T09:32:08;15.50;;;3.40;;
67130;SDS011;54051;53.464;49.532;2023-04-06T09:34:42;17.00;;;3.17;;
67130;SDS011;54051;53.464;49.532;2023-04-06T09:37:12;15.15;;;3.33;;
67130;SDS011;54051;53.464;49.532;2023-04-06T09:39:41;12.77;;;3.47;;
67130;SDS011;54051;53.464;49.532;2023-04-06T09:42:07;14.55;;;3.70;;
67130;SDS011;54051;53.464;49.532;2023-04-06T09:44:34;13.40;;;3.25;;
67130;SDS011;54051;53.464;49.532;2023-04-06T09:47:00;14.60;;;3.75;;
67130;SDS011;54051;53.464;49.532;2023-04-06T09:49:31;12.90;;;3.35;;
67130;SDS011;54051;53.464;49.532;2023-04-06T09:51:59;19.92;;;4.00;;
67130;SDS011;54051;53.464;49.532;2023-04-06T09:54:28;12.00;;;3.17;;
67130;SDS011;54051;53.464;49.532;2023-04-06T09:56:56;13.32;;;3.10;;
67130;SDS011;54051;53.464;49.532;2023-04-06T09:59:48;15.70;;;3.80;;
67130;SDS011;54051;53.464;49.532;2023-04-06T10:02:22;15.43;;;3.83;;
67130;SDS011;54051;53.464;49.532;2023-04-06T10:05:13;12.10;;;3.30;;
67130;SDS011;54051;53.464;49.532;2023-04-06T10:07:47;12.38;;;2.90;;
67130;SDS011;54051;53.464;49.532;2023-04-06T10:10:16;12.80;;;3.28;;
67130;SDS011;54051;53.464;49.532;2023-04-06T10:12:43;13.05;;;3.13;;
67130;SDS011;54051;53.464;49.532;2023-04-06T10:15:10;12.35;;;3.22;;
67130;SDS011;54051;53.464;49.532;2023-04-06T10:17:36;12.60;;;3.20;;
67130;SDS011;54051;53.464;49.532;2023-04-06T10:20:14;9.20;;;3.00;;
67130;SDS011;54051;53.464;49.532;2023-04-06T10:25:31;14.77;;;3.42;;
67130;SDS011;54051;53.464;49.532;2023-04-06T10:27:59;13.45;;;2.83;;
67130;SDS011;54051;53.464;49.532;2023-04-06T10:30:33;11.52;;;3.35;;
67130;SDS011;54051;53.464;49.532;2023-04-06T10:33:00;15.43;;;3.20;;
67130;SDS011;54051;53.464;49.532;2023-04-06T10:35:39;9.32;;;3.05;;
67130;SDS011;54051;53.464;49.532;2023-04-06T10:38:05;11.23;;;2.92;;
67130;SDS011;54051;53.464;49.532;2023-04-06T10:40:31;14.93;;;3.90;;
67130;SDS011;54051;53.464;49.532;2023-04-06T10:43:13;9.63;;;3.20;;
67130;SDS011;54051;53.464;49.532;2023-04-06T10:45:56;10.80;;;3.00;;
67130;SDS011;54051;53.464;49.532;2023-04-06T10:48:35;13.68;;;3.15;;
67130;SDS011;54051;53.464;49.532;2023-04-06T10:51:09;10.45;;;3.38;;
67130;SDS011;54051;53.464;49.532;2023-04-06T10:53:37;13.00;;;2.92;;
67130;SDS011;54051;53.464;49.532;2023-04-06T10:56:04;14.10;;;3.08;;
67130;SDS011;54051;53.464;49.532;2023-04-06T10:58:43;9.43;;;3.00;;
67130;SDS011;54051;53.464;49.532;2023-04-06T11:01:12;9.23;;;3.20;;
67130;SDS011;54051;53.464;49.532;2023-04-06T11:03:43;12.88;;;3.55;;
67130;SDS011;54051;53.464;49.532;2023-04-06T11:06:23;17.27;;;3.95;;
67130;SDS011;54051;53.464;49.532;2023-04-06T11:08:52;14.48;;;3.70;;
67130;SDS011;54051;53.464;49.532;2023-04-06T11:11:21;15.13;;;3.33;;
67130;SDS011;54051;53.464;49.532;2023-04-06T11:13:52;11.57;;;3.47;;
67130;SDS011;54051;53.464;49.532;2023-04-06T11:16:24;12.07;;;3.30;;
67130;SDS011;54051;53.464;49.532;2023-04-06T11:18:58;15.32;;;3.75;;
67130;SDS011;54051;53.464;49.532;2023-04-06T11:24:06;13.63;;;3.70;;
67130;SDS011;54051;53.464;49.532;2023-04-06T11:29:19;15.25;;;3.53;;
67130;SDS011;54051;53.464;49.532;2023-04-06T11:34:23;12.27;;;3.05;;
67130;SDS011;54051;53.464;49.532;2023-04-06T11:36:54;18.80;;;3.05;;
67130;SDS011;54051;53.464;49.532;2023-04-06T11:39:23;18.13;;;3.90;;
67130;SDS011;54051;53.464;49.532;2023-04-06T11:41:50;20.30;;;3.78;;
67130;SDS011;54051;53.464;49.532;2023-04-06T11:47:15;11.52;;;3.58;;
67130;SDS011;54051;53.464;49.532;2023-04-06T11:49:43;11.75;;;3.38;;
67130;SDS011;54051;53.464;49.532;2023-04-06T11:54:49;14.02;;;3.78;;
67130;SDS011;54051;53.464;49.532;2023-04-06T11:57:17;15.02;;;3.90;;
67130;SDS011;54051;53.464;49.532;2023-04-06T11:59:45;15.63;;;3.63;;
67130;SDS011;54051;53.464;49.532;2023-04-06T12:02:12;12.85;;;3.45;;
67130;SDS011;54051;53.464;49.532;2023-04-06T12:04:38;13.45;;;3.40;;
67130;SDS011;54051;53.464;49.532;2023-04-06T12:09:31;10.70;;;3.13;;
67130;SDS011;54051;53.464;49.532;2023-04-06T12:11:57;14.15;;;3.47;;
67130;SDS011;54051;53.464;49.532;2023-04-06T12:14:23;9.57;;;3.15;;
67130;SDS011;54051;53.464;49.532;2023-04-06T12:16:50;11.55;;;3.30;;
67130;SDS011;54051;53.464;49.532;2023-04-06T12:19:17;10.82;;;2.95;;
67130;SDS011;54051;53.464;49.532;2023-04-06T12:21:43;10.00;;;3.35;;
67130;SDS011;54051;53.464;49.532;2023-04-06T12:24:09;10.38;;;3.30;;
67130;SDS011;54051;53.464;49.532;2023-04-06T12:26:35;10.73;;;3.47;;
67130;SDS011;54051;53.464;49.532;2023-04-06T12:31:35;11.60;;;3.60;;
67130;SDS011;54051;53.464;49.532;2023-04-06T12:34:04;11.27;;;3.22;;
67130;SDS011;54051;53.464;49.532;2023-04-06T12:36:30;10.02;;;3.20;;
67130;SDS011;54051;53.464;49.532;2023-04-06T12:38:56;19.58;;;3.17;;
67130;SDS011;54051;53.464;49.532;2023-04-06T12:41:23;11.93;;;3.20;;
67130;SDS011;54051;53.464;49.532;2023-04-06T12:43:50;8.25;;;3.25;;
67130;SDS011;54051;53.464;49.532;2023-04-06T12:46:16;16.10;;;3.58;;
67130;SDS011;54051;53.464;49.532;2023-04-06T12:48:42;14.18;;;3.92;;
67130;SDS011;54051;53.464;49.532;2023-04-06T12:51:09;12.80;;;3.45;;
67130;SDS011;54051;53.464;49.532;2023-04-06T12:53:35;13.60;;;3.78;;
67130;SDS011;54051;53.464;49.532;2023-04-06T12:56:02;10.95;;;3.50;;
67130;SDS011;54051;53.464;49.532;2023-04-06T12:58:36;13.57;;;3.72;;
67130;SDS011;54051;53.464;49.532;2023-04-06T13:01:05;11.63;;;3.28;;
67130;SDS011;54051;53.464;49.532;2023-04-06T13:03:32;10.75;;;3.40;;
67130;SDS011;54051;53.464;49.532;2023-04-06T13:05:59;12.05;;;3.20;;
67130;SDS011;54051;53.464;49.532;2023-04-06T13:08:26;11.70;;;3.83;;
67130;SDS011;54051;53.464;49.532;2023-04-06T13:10:53;12.40;;;3.78;;
67130;SDS011;54051;53.464;49.532;2023-04-06T13:13:23;10.77;;;3.35;;
67130;SDS011;54051;53.464;49.532;2023-04-06T13:15:51;11.05;;;3.17;;
67130;SDS011;54051;53.464;49.532;2023-04-06T13:18:18;11.70;;;3.47;;
67130;SDS011;54051;53.464;49.532;2023-04-06T13:20:46;12.82;;;3.10;;
67130;SDS011;54051;53.464;49.532;2023-04-06T13:23:12;11.50;;;3.50;;
67130;SDS011;54051;53.464;49.532;2023-04-06T13:25:39;10.48;;;3.90;;
67130;SDS011;54051;53.464;49.532;2023-04-06T13:28:05;11.82;;;4.47;;
67130;SDS011;54051;53.464;49.532;2023-04-06T13:30:31;15.35;;;5.10;;
67130;SDS011;54051;53.464;49.532;2023-04-06T13:32:58;17.90;;;5.30;;
67130;SDS011;54051;53.464;49.532;2023-04-06T13:35:24;16.88;;;5.43;;
67130;SDS011;54051;53.464;49.532;2023-04-06T13:37:50;13.65;;;5.63;;
67130;SDS011;54051;53.464;49.532;2023-04-06T13:40:17;16.50;;;6.80;;
67130;SDS011;54051;53.464;49.532;2023-04-06T13:42:44;13.27;;;5.10;;
67130;SDS011;54051;53.464;49.532;2023-04-06T13:45:12;11.63;;;4.55;;
67130;SDS011;54051;53.464;49.532;2023-04-06T13:47:38;14.35;;;5.18;;
67130;SDS011;54051;53.464;49.532;2023-04-06T13:50:04;12.30;;;3.90;;
67130;SDS011;54051;53.464;49.532;2023-04-06T13:52:31;13.07;;;4.30;;
67130;SDS011;54051;53.464;49.532;2023-04-06T13:54:57;15.52;;;4.10;;
67130;SDS011;54051;53.464;49.532;2023-04-06T13:57:24;15.73;;;4.38;;
67130;SDS011;54051;53.464;49.532;2023-04-06T13:59:50;11.32;;;4.07;;
67130;SDS011;54051;53.464;49.532;2023-04-06T14:02:16;11.68;;;4.03;;
67130;SDS011;54051;53.464;49.532;2023-04-06T14:07:10;12.30;;;3.53;;
67130;SDS011;54051;53.464;49.532;2023-04-06T14:09:36;11.38;;;3.85;;
67130;SDS011;54051;53.464;49.532;2023-04-06T14:12:02;11.23;;;3.67;;
67130;SDS011;54051;53.464;49.532;2023-04-06T14:14:29;11.93;;;3.97;;
67130;SDS011;54051;53.464;49.532;2023-04-06T14:16:55;9.13;;;3.10;;
67130;SDS011;54051;53.464;49.532;2023-04-06T14:19:21;11.90;;;3.70;;
67130;SDS011;54051;53.464;49.532;2023-04-06T14:21:47;13.65;;;3.50;;
67130;SDS011;54051;53.464;49.532;2023-04-06T14:24:14;9.23;;;3.03;;
67130;SDS011;54051;53.464;49.532;2023-04-06T14:26:41;12.07;;;3.30;;
67130;SDS011;54051;53.464;49.532;2023-04-06T14:29:08;11.70;;;3.45;;
67130;SDS011;54051;53.464;49.532;2023-04-06T14:31:35;11.55;;;3.75;;
67130;SDS011;54051;53.464;49.532;2023-04-06T14:34:01;11.50;;;3.45;;
67130;SDS011;54051;53.464;49.532;2023-04-06T14:36:32;13.90;;;3.20;;
67130;SDS011;54051;53.464;49.532;2023-04-06T14:39:03;12.13;;;3.50;;
67130;SDS011;54051;53.464;49.532;2023-04-06T14:41:31;7.47;;;3.17;;
67130;SDS011;54051;53.464;49.532;2023-04-06T14:46:25;12.07;;;3.13;;
67130;SDS011;54051;53.464;49.532;2023-04-06T14:48:55;11.98;;;3.15;;
67130;SDS011;54051;53.464;49.532;2023-04-06T14:51:26;9.25;;;3.10;;
67130;SDS011;54051;53.464;49.532;2023-04-06T14:53:53;8.10;;;3.10;;
67130;SDS011;54051;53.464;49.532;2023-04-06T14:56:23;11.13;;;3.25;;
67130;SDS011;54051;53.464;49.532;2023-04-06T14:58:50;11.13;;;3.10;;
67130;SDS011;54051;53.464;49.532;2023-04-06T15:01:18;11.27;;;3.60;;
67130;SDS011;54051;53.464;49.532;2023-04-06T15:03:46;15.73;;;4.78;;
67130;SDS011;54051;53.464;49.532;2023-04-06T15:06:13;14.85;;;6.63;;
67130;SDS011;54051;53.464;49.532;2023-04-06T15:08:43;16.88;;;6.20;;
67130;SDS011;54051;53.464;49.532;2023-04-06T15:11:10;16.15;;;6.32;;
67130;SDS011;54051;53.464;49.532;2023-04-06T15:13:37;12.85;;;5.18;;
67130;SDS011;54051;53.464;49.532;2023-04-06T15:16:05;14.48;;;5.00;;
67130;SDS011;54051;53.464;49.532;2023-04-06T15:18:33;11.20;;;5.20;;
67130;SDS011;54051;53.464;49.532;2023-04-06T15:21:00;12.98;;;5.05;;
67130;SDS011;54051;53.464;49.532;2023-04-06T15:23:27;11.45;;;4.47;;
67130;SDS011;54051;53.464;49.532;2023-04-06T15:25:56;12.38;;;4.55;;
67130;SDS011;54051;53.464;49.532;2023-04-06T15:30:49;7.97;;;3.28;;
67130;SDS011;54051;53.464;49.532;2023-04-06T15:33:15;11.10;;;3.40;;
67130;SDS011;54051;53.464;49.532;2023-04-06T15:38:11;9.63;;;3.30;;
67130;SDS011;54051;53.464;49.532;2023-04-06T15:40:41;7.75;;;3.33;;
67130;SDS011;54051;53.464;49.532;2023-04-06T15:43:10;7.47;;;2.95;;
67130;SDS011;54051;53.464;49.532;2023-04-06T15:45:37;11.73;;;3.17;;
67130;SDS011;54051;53.464;49.532;2023-04-06T15:48:03;8.60;;;3.30;;
67130;SDS011;54051;53.464;49.532;2023-04-06T15:50:29;8.75;;;3.38;;
67130;SDS011;54051;53.464;49.532;2023-04-06T15:52:57;7.13;;;2.83;;